Ratty's Wisdom — WDI5455 — position and weather

sailwx.info

Track history (hours):
 
Tides and Currents Weather Stations Pressure Air Temp Water Temp Dewpoint Dewpoint Depression Visibility Wind Speed Wind Dir Waves Ship Positions

Ratty's Wisdom

Owner: Sebastian, David S, Grand Rapids, MI. More information available from US FCC via Universal Licensing System and Coast Guard Vessel Documentation Center.

Last reported at 2017-Oct-13 21:52 UTC. Time now 2017-Oct-22 23:01 UTC.
Position N 37°55' W 122°21'.
Warning: this ship's position is 9 days out of date.

Length 14 m.

Type: Sailing vessel. MMSI: 367708730.

Date/timePositionNaut miles runAvg speedWind from/ knotsBaromVisibWave heightAir tempDewpointWater temp
2017-Oct-13 21:52N 37°55' W 122°21'0 0.0
2017-Oct-13 21:28N 37°55' W 122°21'0 0.0
2017-Oct-13 20:58N 37°55' W 122°21'0 0.5
2017-Oct-13 20:28N 37°55' W 122°21'2 4.7
2017-Oct-13 20:00N 37°54' W 122°24'3 5.5
2017-Oct-13 19:29N 37°52' W 122°27'2 4.4
2017-Oct-13 18:59N 37°52' W 122°29'0 0.0
2017-Oct-12 19:13N 37°52' W 122°30'0 0.0
2017-Oct-12 04:05N 37°52' W 122°30'0 0.0
2017-Oct-11 23:33N 37°52' W 122°30'0 0.0
2017-Oct-11 23:30N 37°52' W 122°30'0 0.4
2017-Oct-11 23:00N 37°52' W 122°29'3 6.0
2017-Oct-11 22:30N 37°50' W 122°26'1 2.5
2017-Oct-11 22:00N 37°50' W 122°25'1 1.3
2017-Oct-11 21:30N 37°51' W 122°24'1 1.8
2017-Oct-11 21:00N 37°50' W 122°23'3 5.0
2017-Oct-11 20:30N 37°53' W 122°25'1 2.8
2017-Oct-11 20:00N 37°51' W 122°24'1 2.4
2017-Oct-11 19:28N 37°50' W 122°23'1 1.9
2017-Oct-11 19:00N 37°49' W 122°23'2 3.2
2017-Oct-11 18:30N 37°48' W 122°23'1 2.2
2017-Oct-11 18:00N 37°49' W 122°24'3 6.5
2017-Oct-11 17:30N 37°50' W 122°28'  
2017-Oct-08 23:20N 37°52' W 122°29'2 5.4
2017-Oct-08 23:00N 37°51' W 122°28'1 2.8
2017-Oct-08 22:30N 37°49' W 122°27'1 0.8
2017-Oct-08 21:52N 37°50' W 122°26'0 0.5
2017-Oct-08 21:28N 37°50' W 122°26'0 0.2
2017-Oct-08 21:00N 37°50' W 122°26'3 6.0
2017-Oct-08 20:30N 37°52' W 122°29'1 0.0
2017-Oct-08 00:10N 37°52' W 122°30'0 0.0
2017-Oct-07 23:58N 37°52' W 122°30'2 3.7
2017-Oct-07 23:30N 37°51' W 122°27'3 6.4
2017-Oct-07 23:00N 37°54' W 122°25'3 5.3
2017-Oct-07 22:30N 37°55' W 122°22'1 1.3
2017-Oct-07 22:00N 37°55' W 122°21'0 0.0
2017-Oct-05 18:49N 37°55' W 122°21'0 0.0
2017-Oct-05 18:28N 37°55' W 122°21'  
Track history (hours):
 
Tides and Currents Weather Stations Pressure Air Temp Water Temp Dewpoint Dewpoint Depression Visibility Wind Speed Wind Dir Waves Ship Positions

Ratty's Wisdom

Owner: Sebastian, David S, Grand Rapids, MI. More information available from US FCC via Universal Licensing System and Coast Guard Vessel Documentation Center.

Last reported at 2017-Oct-13 21:52 UTC. Time now 2017-Oct-22 23:01 UTC.
Position N 37°55' W 122°21'.
Warning: this ship's position is 9 days out of date.

Length 14 m.

Type: Sailing vessel. MMSI: 367708730.

Date/timePositionNaut miles runAvg speedWind from/ knotsBaromVisibWave heightAir tempDewpointWater temp
2017-Oct-13 21:52N 37°55' W 122°21'0 0.0
2017-Oct-13 21:28N 37°55' W 122°21'0 0.0
2017-Oct-13 20:58N 37°55' W 122°21'0 0.5
2017-Oct-13 20:28N 37°55' W 122°21'2 4.7
2017-Oct-13 20:00N 37°54' W 122°24'3 5.5
2017-Oct-13 19:29N 37°52' W 122°27'2 4.4
2017-Oct-13 18:59N 37°52' W 122°29'0 0.0
2017-Oct-12 19:13N 37°52' W 122°30'0 0.0
2017-Oct-12 04:05N 37°52' W 122°30'0 0.0
2017-Oct-11 23:33N 37°52' W 122°30'0 0.0
2017-Oct-11 23:30N 37°52' W 122°30'0 0.4
2017-Oct-11 23:00N 37°52' W 122°29'3 6.0
2017-Oct-11 22:30N 37°50' W 122°26'1 2.5
2017-Oct-11 22:00N 37°50' W 122°25'1 1.3
2017-Oct-11 21:30N 37°51' W 122°24'1 1.8
2017-Oct-11 21:00N 37°50' W 122°23'3 5.0
2017-Oct-11 20:30N 37°53' W 122°25'1 2.8
2017-Oct-11 20:00N 37°51' W 122°24'1 2.4
2017-Oct-11 19:28N 37°50' W 122°23'1 1.9
2017-Oct-11 19:00N 37°49' W 122°23'2 3.2
2017-Oct-11 18:30N 37°48' W 122°23'1 2.2
2017-Oct-11 18:00N 37°49' W 122°24'3 6.5
2017-Oct-11 17:30N 37°50' W 122°28'  
2017-Oct-08 23:20N 37°52' W 122°29'2 5.4
2017-Oct-08 23:00N 37°51' W 122°28'1 2.8
2017-Oct-08 22:30N 37°49' W 122°27'1 0.8
2017-Oct-08 21:52N 37°50' W 122°26'0 0.5
2017-Oct-08 21:28N 37°50' W 122°26'0 0.2
2017-Oct-08 21:00N 37°50' W 122°26'3 6.0
2017-Oct-08 20:30N 37°52' W 122°29'1 0.0
2017-Oct-08 00:10N 37°52' W 122°30'0 0.0
2017-Oct-07 23:58N 37°52' W 122°30'2 3.7
2017-Oct-07 23:30N 37°51' W 122°27'3 6.4
2017-Oct-07 23:00N 37°54' W 122°25'3 5.3
2017-Oct-07 22:30N 37°55' W 122°22'1 1.3
2017-Oct-07 22:00N 37°55' W 122°21'0 0.0
2017-Oct-05 18:49N 37°55' W 122°21'0 0.0
2017-Oct-05 18:28N 37°55' W 122°21'  

Dump ship's entire track history